Time;durP1;ratioP1;P1;durP2;ratioP2;P2;SDS_P1;SDS_P2;PMS_P1;PMS_P2;Temp;Humidity;BMP_temperature;BMP_pressure;BME280_temperature;BME280_humidity;BME280_pressure;Samples;Min_cycle;Max_cycle;Signal;HPM_P1;HPM_P2
2022/10/10 00:00:19;;;;;;;0.60;0.60;;;11.90;99.90;;;;;;5017172;28;20228;-69
2022/10/10 00:02:45;;;;;;;0.63;0.63;;;11.70;99.90;;;;;;5017857;28;20172;-70
2022/10/10 00:05:11;;;;;;;0.80;0.80;;;11.60;99.90;;;;;;5017878;28;20191;-72
2022/10/10 00:07:36;;;;;;;0.80;0.80;;;11.60;99.90;;;;;;5017260;28;20245;-70
2022/10/10 00:10:02;;;;;;;0.43;0.43;;;11.60;99.90;;;;;;5017197;28;20182;-72
2022/10/10 00:12:28;;;;;;;0.40;0.40;;;11.50;99.90;;;;;;5017433;28;20255;-72
2022/10/10 00:14:54;;;;;;;0.57;0.57;;;11.60;99.90;;;;;;5016220;28;20880;-72
2022/10/10 00:17:19;;;;;;;0.40;0.40;;;11.60;99.90;;;;;;5017523;28;20192;-72
2022/10/10 00:19:45;;;;;;;1.63;1.00;;;11.70;99.90;;;;;;5016872;28;20180;-70
2022/10/10 00:22:11;;;;;;;0.77;0.77;;;11.70;99.90;;;;;;5017035;28;20515;-70
2022/10/10 00:24:37;;;;;;;1.80;0.90;;;11.80;99.90;;;;;;5016837;28;20259;-71
2022/10/10 00:27:02;;;;;;;0.97;0.97;;;11.80;99.90;;;;;;5017137;28;20241;-70
2022/10/10 00:29:28;;;;;;;1.40;0.60;;;11.70;99.90;;;;;;5016751;28;20595;-71
2022/10/10 00:31:53;;;;;;;0.87;0.87;;;11.80;99.90;;;;;;5016792;28;20234;-71
2022/10/10 00:34:19;;;;;;;1.27;1.23;;;11.80;99.90;;;;;;5017286;28;20175;-70
2022/10/10 00:36:45;;;;;;;0.40;0.40;;;11.70;99.90;;;;;;5016702;28;20333;-69
2022/10/10 00:39:10;;;;;;;1.20;1.17;;;11.70;99.90;;;;;;5016631;28;20206;-71
2022/10/10 00:41:36;;;;;;;0.30;0.30;;;11.70;99.90;;;;;;5016986;28;20171;-72
2022/10/10 00:44:05;;;;;;;1.00;1.00;;;11.70;99.90;;;;;;5017148;28;20175;-72
2022/10/10 00:46:31;;;;;;;0.73;0.73;;;11.70;99.90;;;;;;5016430;28;20211;-70
2022/10/10 00:48:56;;;;;;;0.90;0.90;;;11.70;99.90;;;;;;5016630;28;20415;-69
2022/10/10 00:51:22;;;;;;;1.13;1.13;;;11.60;99.90;;;;;;5014482;28;20285;-72
2022/10/10 00:53:51;;;;;;;0.67;0.67;;;11.70;99.90;;;;;;5016481;28;20175;-72
2022/10/10 00:56:19;;;;;;;0.70;0.70;;;11.60;99.90;;;;;;5016573;28;20543;-71
2022/10/10 00:58:49;;;;;;;0.50;0.50;;;11.60;99.90;;;;;;5016715;28;20446;-72
2022/10/10 01:01:15;;;;;;;1.23;1.23;;;11.60;99.90;;;;;;5016650;28;20406;-70
2022/10/10 01:03:41;;;;;;;0.70;0.70;;;11.60;99.90;;;;;;5016302;28;20417;-72
2022/10/10 01:06:07;;;;;;;0.60;0.60;;;11.60;99.90;;;;;;5014885;28;20546;-73
2022/10/10 01:08:34;;;;;;;0.70;0.70;;;11.60;99.90;;;;;;5016019;28;20222;-70
2022/10/10 01:11:31;;;;;;;0.88;0.77;;;11.60;99.90;;;;;;5015845;28;20489;-72
2022/10/10 01:14:22;;;;;;;0.93;0.93;;;11.60;99.90;;;;;;5011760;28;20186;-70
2022/10/10 01:16:48;;;;;;;0.40;0.40;;;11.60;99.90;;;;;;5015343;28;20554;-69
2022/10/10 01:19:26;;;;;;;0.40;0.40;;;11.50;99.90;;;;;;5014363;28;20437;-70
2022/10/10 01:22:33;;;;;;;0.47;0.47;;;11.40;99.90;;;;;;5015849;28;20167;-71
2022/10/10 01:25:28;;;;;;;0.87;0.83;;;11.40;99.90;;;;;;5010231;28;20506;-72
2022/10/10 01:28:32;;;;;;;0.93;0.90;;;11.40;99.90;;;;;;5016172;28;20402;-70
2022/10/10 01:30:59;;;;;;;0.50;0.50;;;11.40;99.90;;;;;;5013262;28;20466;-72
2022/10/10 01:33:43;;;;;;;0.70;0.50;;;11.40;99.90;;;;;;5016138;28;20432;-71
2022/10/10 01:36:34;;;;;;;1.43;0.97;;;11.40;99.90;;;;;;5015775;28;20426;-69
2022/10/10 01:39:20;;;;;;;0.57;0.57;;;11.40;99.90;;;;;;5015262;28;20762;-71
2022/10/10 01:41:55;;;;;;;1.27;1.27;;;11.50;99.90;;;;;;5014268;28;20406;-72
2022/10/10 01:44:21;;;;;;;0.90;0.90;;;11.50;99.90;;;;;;5015465;28;20413;-70
2022/10/10 01:46:47;;;;;;;0.83;0.83;;;11.50;99.90;;;;;;5015100;28;20823;-70
2022/10/10 01:49:13;;;;;;;1.70;1.60;;;11.60;99.90;;;;;;5014940;28;20421;-71
2022/10/10 01:51:55;;;;;;;0.83;0.83;;;11.60;99.90;;;;;;5015221;28;20536;-71
2022/10/10 01:54:45;;;;;;;0.97;0.70;;;11.60;99.90;;;;;;5015173;28;20171;-69
2022/10/10 01:57:14;;;;;;;1.33;1.23;;;11.60;99.90;;;;;;5014983;28;20406;-70
2022/10/10 01:59:58;;;;;;;0.98;0.98;;;11.60;99.90;;;;;;5014795;28;20406;-72
2022/10/10 02:02:43;;;;;;;0.68;0.68;;;11.80;99.90;;;;;;5015256;28;20217;-71
2022/10/10 02:05:28;;;;;;;1.43;1.33;;;11.80;99.90;;;;;;5013083;28;20702;-72
2022/10/10 02:08:06;;;;;;;0.40;0.40;;;11.80;99.90;;;;;;5015600;28;20883;-73
2022/10/10 02:10:36;;;;;;;0.40;0.40;;;11.70;99.90;;;;;;5014854;28;20493;-69
2022/10/10 02:13:03;;;;;;;0.57;0.57;;;11.80;99.90;;;;;;5014738;28;20410;-73
2022/10/10 02:15:37;;;;;;;0.60;0.60;;;11.70;99.90;;;;;;5014745;28;20417;-71
2022/10/10 02:18:06;;;;;;;3.43;0.87;;;11.80;99.90;;;;;;5014886;28;20386;-72
2022/10/10 02:20:32;;;;;;;0.30;0.30;;;11.80;99.90;;;;;;5014467;28;20461;-72
2022/10/10 02:22:58;;;;;;;0.70;0.70;;;11.80;99.90;;;;;;5014952;28;20407;-70
2022/10/10 02:25:30;;;;;;;1.00;1.00;;;11.70;99.90;;;;;;5014838;28;20742;-71
2022/10/10 02:27:59;;;;;;;1.00;1.00;;;11.70;99.90;;;;;;5014567;28;20406;-71
2022/10/10 02:30:25;;;;;;;0.50;0.50;;;11.70;99.90;;;;;;5014287;28;20409;-68
2022/10/10 02:33:00;;;;;;;0.77;0.77;;;11.70;99.90;;;;;;5014616;28;20402;-70
2022/10/10 02:35:34;;;;;;;3.60;0.97;;;11.80;99.90;;;;;;5013155;28;20410;-71
2022/10/10 02:38:01;;;;;;;0.70;0.70;;;11.80;99.90;;;;;;5014740;28;20386;-71
2022/10/10 02:40:31;;;;;;;2.17;1.13;;;11.80;99.90;;;;;;5014587;28;20402;-70
2022/10/10 02:43:00;;;;;;;0.93;0.93;;;11.80;99.90;;;;;;5015031;28;20180;-71
2022/10/10 02:45:29;;;;;;;0.65;0.65;;;11.80;99.90;;;;;;5014292;28;20167;-72
2022/10/10 02:47:55;;;;;;;0.90;0.90;;;11.80;99.90;;;;;;5014601;28;20645;-71
2022/10/10 02:50:21;;;;;;;0.73;0.73;;;11.90;99.90;;;;;;5014260;28;20170;-70
2022/10/10 02:52:47;;;;;;;2.80;1.67;;;11.90;99.90;;;;;;5014498;28;20824;-71
2022/10/10 02:55:13;;;;;;;0.47;0.47;;;11.90;99.90;;;;;;5013309;28;20421;-70
2022/10/10 02:57:38;;;;;;;1.47;1.03;;;12.10;99.90;;;;;;5014619;28;20183;-70
2022/10/10 03:00:05;;;;;;;0.50;0.50;;;12.10;99.90;;;;;;5014138;28;20707;-70
2022/10/10 03:02:31;;;;;;;0.87;0.83;;;12.10;99.90;;;;;;5014343;28;20188;-72
2022/10/10 03:04:57;;;;;;;0.97;0.97;;;12.20;99.90;;;;;;5014195;28;20759;-70
2022/10/10 03:07:24;;;;;;;0.60;0.60;;;12.30;99.90;;;;;;5014160;28;20424;-70
2022/10/10 03:09:50;;;;;;;0.57;0.57;;;12.40;99.90;;;;;;5013969;28;20597;-70
2022/10/10 03:12:16;;;;;;;0.40;0.40;;;12.40;99.90;;;;;;5013151;28;20458;-70
2022/10/10 03:14:42;;;;;;;0.50;0.50;;;12.40;99.90;;;;;;5014259;28;20410;-73
2022/10/10 03:17:08;;;;;;;0.40;0.40;;;12.40;99.90;;;;;;5014301;28;20429;-70
2022/10/10 03:19:33;;;;;;;0.40;0.40;;;12.40;99.90;;;;;;5013664;28;20253;-69
2022/10/10 03:21:59;;;;;;;0.60;0.60;;;12.40;99.90;;;;;;5014210;28;20174;-71
2022/10/10 03:24:25;;;;;;;0.47;0.47;;;12.40;99.90;;;;;;5014201;28;20172;-72
2022/10/10 03:26:52;;;;;;;1.10;1.03;;;12.40;99.90;;;;;;5014247;28;20637;-72
2022/10/10 03:29:17;;;;;;;0.50;0.40;;;12.40;99.90;;;;;;5012853;28;20449;-71
2022/10/10 03:31:43;;;;;;;0.40;0.40;;;12.40;99.90;;;;;;5013734;28;20848;-72
2022/10/10 03:34:09;;;;;;;0.47;0.47;;;12.30;99.90;;;;;;5014086;28;20232;-70
2022/10/10 03:36:35;;;;;;;1.60;1.50;;;12.30;99.90;;;;;;5013963;28;20645;-70
2022/10/10 03:39:01;;;;;;;1.30;1.17;;;12.20;99.90;;;;;;5013902;28;20407;-72
2022/10/10 03:41:27;;;;;;;0.40;0.40;;;12.20;99.90;;;;;;5014217;28;20410;-70
2022/10/10 03:43:52;;;;;;;0.50;0.50;;;12.20;99.90;;;;;;5014232;28;20949;-70
2022/10/10 03:46:19;;;;;;;0.30;0.30;;;12.30;99.90;;;;;;5013498;28;20245;-70
2022/10/10 03:48:45;;;;;;;1.00;1.00;;;12.30;99.90;;;;;;5013762;28;20171;-69
2022/10/10 03:51:11;;;;;;;0.93;0.93;;;12.40;99.90;;;;;;5013871;28;21016;-71
2022/10/10 03:53:37;;;;;;;1.13;1.03;;;12.40;99.90;;;;;;5013998;28;20437;-68
2022/10/10 03:56:03;;;;;;;0.77;0.77;;;12.60;99.90;;;;;;5013956;28;20191;-71
2022/10/10 03:58:29;;;;;;;1.13;0.97;;;12.60;99.90;;;;;;5014154;28;20411;-69
2022/10/10 04:00:56;;;;;;;0.40;0.40;;;12.70;99.90;;;;;;5011783;28;20421;-70
2022/10/10 04:03:23;;;;;;;0.70;0.63;;;12.70;99.90;;;;;;5013615;28;20178;-71
2022/10/10 04:05:49;;;;;;;0.60;0.57;;;12.70;99.90;;;;;;5013566;28;20481;-72
2022/10/10 04:08:15;;;;;;;0.60;0.60;;;12.80;99.90;;;;;;5013550;28;20405;-71
2022/10/10 04:10:41;;;;;;;0.60;0.60;;;12.80;99.90;;;;;;5013316;28;20413;-72
2022/10/10 04:13:07;;;;;;;1.33;0.90;;;12.80;99.90;;;;;;5011518;28;20416;-71
2022/10/10 04:15:32;;;;;;;0.73;0.73;;;12.80;99.90;;;;;;5013287;28;20167;-71
2022/10/10 04:17:59;;;;;;;3.27;1.07;;;12.80;99.90;;;;;;5012592;28;20565;-72
2022/10/10 04:20:25;;;;;;;0.40;0.40;;;12.90;99.90;;;;;;5012580;28;20176;-70
2022/10/10 04:22:50;;;;;;;0.97;0.83;;;12.90;99.90;;;;;;5013701;28;20415;-72
2022/10/10 04:25:16;;;;;;;0.60;0.50;;;12.90;99.90;;;;;;5013882;28;20410;-70
2022/10/10 04:27:45;;;;;;;1.47;1.37;;;13.00;99.90;;;;;;5015090;28;20672;-71
2022/10/10 04:30:11;;;;;;;0.67;0.67;;;13.00;99.90;;;;;;5015454;28;20911;-72
2022/10/10 04:32:37;;;;;;;0.80;0.40;;;13.00;99.90;;;;;;5016970;28;20489;-71
2022/10/10 04:35:03;;;;;;;0.57;0.50;;;12.90;99.90;;;;;;5017005;28;20445;-74
2022/10/10 04:37:29;;;;;;;0.80;0.80;;;13.00;99.90;;;;;;5017198;28;20189;-72
2022/10/10 04:39:55;;;;;;;0.57;0.57;;;13.10;99.90;;;;;;5016677;28;20402;-70
2022/10/10 04:42:20;;;;;;;0.70;0.70;;;13.10;99.90;;;;;;5017218;28;20171;-70
2022/10/10 04:44:46;;;;;;;0.30;0.30;;;13.10;99.90;;;;;;5016612;28;20175;-74
2022/10/10 04:47:12;;;;;;;1.13;1.13;;;13.00;99.90;;;;;;5016600;28;20228;-70
2022/10/10 04:49:38;;;;;;;0.50;0.50;;;13.00;99.90;;;;;;5016279;28;20414;-74
2022/10/10 04:52:03;;;;;;;1.43;1.33;;;13.10;99.90;;;;;;5016745;28;20579;-70
2022/10/10 04:54:29;;;;;;;1.00;0.50;;;13.10;99.90;;;;;;5016773;28;20413;-74
2022/10/10 04:56:55;;;;;;;0.63;0.63;;;13.00;99.90;;;;;;5016923;28;20581;-74
2022/10/10 04:59:21;;;;;;;0.60;0.60;;;13.10;99.90;;;;;;5016093;28;20531;-73
2022/10/10 05:01:46;;;;;;;0.40;0.40;;;13.10;99.90;;;;;;5016381;28;20232;-71
2022/10/10 05:04:13;;;;;;;1.03;0.93;;;13.10;99.90;;;;;;5016519;28;20398;-71
2022/10/10 05:06:39;;;;;;;0.50;0.50;;;13.10;99.90;;;;;;5014850;28;20742;-71
2022/10/10 05:09:04;;;;;;;0.87;0.87;;;13.10;99.90;;;;;;5016465;28;20417;-71
2022/10/10 05:11:30;;;;;;;0.40;0.40;;;13.20;99.90;;;;;;5016539;28;20697;-73
2022/10/10 05:13:56;;;;;;;1.23;1.13;;;13.30;99.90;;;;;;5016247;28;20174;-72
2022/10/10 05:16:21;;;;;;;0.60;0.60;;;13.40;99.90;;;;;;5014662;28;20191;-74
2022/10/10 05:18:47;;;;;;;0.50;0.50;;;13.40;99.90;;;;;;5016133;28;20693;-74
2022/10/10 05:21:13;;;;;;;1.37;1.37;;;13.40;99.90;;;;;;5016334;28;20189;-74
2022/10/10 05:23:40;;;;;;;1.80;0.60;;;13.40;99.90;;;;;;5016411;28;20545;-70
2022/10/10 05:26:06;;;;;;;1.63;1.53;;;13.40;99.90;;;;;;5016369;28;20191;-72
2022/10/10 05:28:34;;;;;;;0.40;0.40;;;13.40;99.90;;;;;;5015866;28;20403;-70
2022/10/10 05:31:03;;;;;;;6.33;0.87;;;13.40;99.90;;;;;;5015716;28;20989;-74
2022/10/10 05:33:28;;;;;;;1.37;1.27;;;13.40;99.90;;;;;;5015052;28;20398;-71
2022/10/10 05:36:20;;;;;;;0.90;0.90;;;13.30;99.90;;;;;;5015359;28;20431;-73
2022/10/10 05:38:46;;;;;;;1.20;1.20;;;13.30;99.90;;;;;;5010430;28;20182;-72
2022/10/10 05:41:11;;;;;;;0.87;0.40;;;13.30;99.90;;;;;;5015746;28;20416;-72
2022/10/10 05:43:38;;;;;;;0.87;0.80;;;13.30;99.90;;;;;;5015736;28;20179;-72
2022/10/10 05:46:04;;;;;;;0.40;0.40;;;13.30;99.90;;;;;;5015428;28;20209;-72
2022/10/10 05:48:30;;;;;;;1.10;0.50;;;13.30;99.90;;;;;;5015761;28;20465;-71
2022/10/10 05:50:57;;;;;;;0.70;0.70;;;13.40;99.90;;;;;;5013299;28;20851;-72
2022/10/10 05:53:26;;;;;;;0.30;0.30;;;13.30;99.90;;;;;;5015371;28;20414;-70
2022/10/10 05:55:52;;;;;;;0.63;0.63;;;13.40;99.90;;;;;;5014420;28;20469;-69
2022/10/10 05:58:18;;;;;;;1.17;0.97;;;13.40;99.90;;;;;;5014477;28;20879;-74
2022/10/10 06:00:45;;;;;;;0.50;0.50;;;13.40;99.90;;;;;;5015412;28;20199;-73
2022/10/10 06:03:14;;;;;;;0.60;0.60;;;13.40;99.90;;;;;;5015628;28;20252;-70
2022/10/10 06:05:40;;;;;;;0.50;0.50;;;13.40;99.90;;;;;;5015565;28;20485;-74
2022/10/10 06:08:06;;;;;;;0.40;0.40;;;13.40;99.90;;;;;;5015148;28;20776;-71
2022/10/10 06:10:37;;;;;;;2.40;1.07;;;13.30;99.90;;;;;;5013968;28;20452;-69
2022/10/10 06:13:03;;;;;;;0.60;0.60;;;13.20;99.90;;;;;;5014341;28;20438;-72
2022/10/10 06:15:28;;;;;;;0.60;0.60;;;13.20;99.90;;;;;;5015331;28;20399;-72
2022/10/10 06:17:54;;;;;;;0.50;0.50;;;13.20;99.90;;;;;;5015526;28;20183;-70
2022/10/10 06:20:20;;;;;;;2.60;1.00;;;13.20;99.90;;;;;;5014570;28;20548;-72
2022/10/10 06:22:45;;;;;;;0.53;0.53;;;13.10;99.90;;;;;;5014804;28;20175;-72
2022/10/10 06:25:11;;;;;;;4.40;1.43;;;13.00;99.90;;;;;;5014981;28;20258;-71
2022/10/10 06:27:37;;;;;;;0.60;0.60;;;13.00;99.90;;;;;;5013741;28;20208;-71
2022/10/10 06:30:03;;;;;;;1.23;1.00;;;13.00;99.90;;;;;;5014511;28;20258;-71
2022/10/10 06:32:29;;;;;;;0.40;0.40;;;12.90;99.90;;;;;;5015133;28;20446;-70
2022/10/10 06:34:54;;;;;;;0.83;0.80;;;12.90;99.90;;;;;;5011116;28;20419;-70
2022/10/10 06:37:20;;;;;;;0.97;0.87;;;13.00;99.90;;;;;;5012861;28;20209;-72
2022/10/10 06:39:46;;;;;;;0.60;0.60;;;13.00;99.90;;;;;;5014326;28;20176;-73
2022/10/10 06:42:11;;;;;;;0.40;0.40;;;13.00;99.90;;;;;;5010945;28;20202;-70
2022/10/10 06:44:37;;;;;;;0.83;0.50;;;12.90;99.90;;;;;;5013437;28;20696;-71
2022/10/10 06:47:03;;;;;;;0.50;0.50;;;12.90;99.90;;;;;;5013720;28;20207;-71
2022/10/10 06:49:28;;;;;;;0.87;0.87;;;12.90;99.90;;;;;;5012026;28;20260;-69
2022/10/10 06:51:54;;;;;;;0.60;0.60;;;12.90;99.90;;;;;;5014278;28;20229;-72
2022/10/10 06:54:20;;;;;;;0.50;0.50;;;13.00;99.90;;;;;;5014505;28;20171;-69
2022/10/10 06:56:46;;;;;;;1.83;1.73;;;13.10;99.90;;;;;;5014444;28;20925;-70
2022/10/10 06:59:11;;;;;;;0.43;0.43;;;13.30;99.90;;;;;;5014386;28;20398;-72
2022/10/10 07:01:37;;;;;;;0.60;0.60;;;13.50;99.90;;;;;;5013960;28;20185;-73
2022/10/10 07:04:04;;;;;;;0.50;0.50;;;13.80;99.90;;;;;;5013875;28;20175;-71
2022/10/10 07:06:30;;;;;;;0.57;0.57;;;14.00;99.90;;;;;;5014106;28;20195;-70
2022/10/10 07:08:57;;;;;;;0.80;0.80;;;14.40;99.90;;;;;;5014261;28;20394;-71
2022/10/10 07:11:24;;;;;;;0.80;0.80;;;14.70;99.90;;;;;;5014115;28;20454;-72
2022/10/10 07:13:52;;;;;;;1.43;1.33;;;14.80;99.90;;;;;;5012395;28;20412;-73
2022/10/10 07:16:18;;;;;;;0.90;0.90;;;14.90;99.90;;;;;;5013858;28;20434;-71
2022/10/10 07:18:44;;;;;;;0.90;0.90;;;15.10;99.90;;;;;;5012517;28;20406;-73
2022/10/10 07:21:10;;;;;;;0.90;0.90;;;15.30;99.90;;;;;;5013367;28;20436;-72
2022/10/10 07:23:36;;;;;;;1.03;1.03;;;15.50;99.90;;;;;;5013846;28;20489;-71
2022/10/10 07:26:12;;;;;;;0.73;0.40;;;15.70;99.90;;;;;;5014091;28;20187;-69
2022/10/10 07:28:38;;;;;;;1.47;0.90;;;16.00;99.90;;;;;;5014441;28;20159;-70
2022/10/10 07:31:07;;;;;;;1.00;0.87;;;16.20;99.90;;;;;;5013371;28;20465;-72
2022/10/10 07:33:35;;;;;;;1.20;1.10;;;16.30;99.90;;;;;;5013756;28;20172;-68
2022/10/10 07:36:01;;;;;;;0.47;0.47;;;16.50;99.90;;;;;;5013091;28;20480;-72
2022/10/10 07:38:27;;;;;;;1.00;0.83;;;16.60;99.90;;;;;;5012908;28;20415;-71
2022/10/10 07:40:52;;;;;;;3.33;0.87;;;16.70;99.90;;;;;;5013825;28;20171;-71
2022/10/10 07:43:18;;;;;;;0.53;0.53;;;16.70;99.90;;;;;;5014296;28;20632;-70
2022/10/10 07:45:44;;;;;;;0.73;0.73;;;16.70;99.90;;;;;;5013345;28;20242;-69
2022/10/10 07:48:10;;;;;;;0.40;0.40;;;16.80;99.90;;;;;;5013892;28;20164;-70
2022/10/10 07:50:39;;;;;;;1.33;1.23;;;16.90;99.90;;;;;;5012772;28;20187;-72
2022/10/10 07:53:06;;;;;;;0.40;0.40;;;17.00;99.90;;;;;;5012973;28;20434;-71
2022/10/10 07:55:33;;;;;;;0.60;0.60;;;17.10;99.30;;;;;;5013914;28;20448;-73
2022/10/10 07:58:01;;;;;;;1.50;0.77;;;17.20;99.50;;;;;;5014136;28;20490;-72
2022/10/10 08:00:27;;;;;;;1.00;0.70;;;17.30;99.40;;;;;;5013325;28;20415;-72
2022/10/10 08:02:53;;;;;;;0.60;0.60;;;17.40;99.40;;;;;;5016051;28;20407;-73
2022/10/10 08:05:19;;;;;;;0.50;0.50;;;17.50;99.90;;;;;;5015535;28;20476;-72
2022/10/10 08:07:44;;;;;;;0.50;0.50;;;17.80;99.90;;;;;;5017669;28;20201;-69
2022/10/10 08:10:11;;;;;;;0.93;0.60;;;18.50;99.30;;;;;;5017106;28;20178;-70
2022/10/10 08:12:36;;;;;;;0.40;0.40;;;18.80;98.00;;;;;;5015363;28;20293;-72
2022/10/10 08:15:03;;;;;;;0.67;0.67;;;18.90;97.60;;;;;;5017132;28;20445;-72
2022/10/10 08:17:29;;;;;;;0.53;0.50;;;19.00;97.30;;;;;;5017083;28;20195;-71
2022/10/10 08:19:55;;;;;;;0.50;0.50;;;19.00;96.90;;;;;;5016873;28;20964;-71
2022/10/10 08:22:20;;;;;;;1.40;0.47;;;19.10;96.80;;;;;;5017342;28;20254;-71
2022/10/10 08:24:46;;;;;;;0.70;0.40;;;19.10;96.10;;;;;;5017413;28;20520;-72
2022/10/10 08:27:13;;;;;;;0.50;0.40;;;19.30;96.60;;;;;;5017296;28;20199;-71
2022/10/10 08:29:39;;;;;;;0.40;0.30;;;19.80;95.50;;;;;;5016670;28;20171;-71
2022/10/10 08:32:04;;;;;;;0.50;0.40;;;20.10;94.60;;;;;;5016853;28;20484;-74
2022/10/10 08:34:30;;;;;;;0.97;0.40;;;20.30;94.50;;;;;;5017022;28;20225;-71
2022/10/10 08:36:55;;;;;;;0.50;0.50;;;20.50;94.40;;;;;;5016583;28;20557;-72
2022/10/10 08:39:21;;;;;;;0.40;0.40;;;21.60;93.10;;;;;;5015185;28;20168;-74
2022/10/10 08:41:59;;;;;;;0.40;0.40;;;22.70;91.20;;;;;;5017227;28;20637;-71
2022/10/10 08:44:42;;;;;;;0.60;0.40;;;23.30;90.10;;;;;;5016858;28;20317;-70
2022/10/10 08:47:13;;;;;;;0.30;0.30;;;23.90;87.10;;;;;;5016800;28;20436;-72
2022/10/10 08:50:05;;;;;;;0.50;0.50;;;24.30;85.60;;;;;;5016499;28;20392;-71
2022/10/10 08:52:48;;;;;;;0.40;0.40;;;24.40;82.00;;;;;;5016645;28;20425;-70
2022/10/10 08:55:32;;;;;;;0.80;0.80;;;24.60;82.90;;;;;;5015410;28;20429;-73
2022/10/10 08:58:06;;;;;;;0.40;0.40;;;25.00;80.60;;;;;;5016526;28;20489;-73
2022/10/10 09:00:38;;;;;;;0.40;0.40;;;25.30;78.40;;;;;;5016009;28;20500;-69
2022/10/10 09:03:18;;;;;;;0.60;0.40;;;25.40;76.40;;;;;;5016510;28;20435;-70
2022/10/10 09:06:14;;;;;;;0.40;0.30;;;25.30;77.40;;;;;;5016428;28;20417;-73
2022/10/10 09:09:07;;;;;;;0.37;0.37;;;24.50;74.60;;;;;;5016573;28;20404;-73
2022/10/10 09:11:39;;;;;;;0.40;0.40;;;23.40;78.10;;;;;;5016092;28;20428;-71
2022/10/10 09:14:35;;;;;;;0.50;0.40;;;22.70;81.70;;;;;;5015916;28;20377;-74
2022/10/10 09:17:22;;;;;;;0.40;0.40;;;22.20;82.00;;;;;;5014453;28;20430;-71
2022/10/10 09:19:54;;;;;;;0.40;0.40;;;21.70;84.20;;;;;;5015789;28;20410;-72
2022/10/10 09:22:25;;;;;;;0.37;0.37;;;21.30;87.10;;;;;;5016106;28;20417;-71
2022/10/10 09:25:00;;;;;;;0.40;0.40;;;21.20;87.20;;;;;;5016180;28;20416;-73
2022/10/10 09:27:36;;;;;;;0.77;0.50;;;21.10;88.20;;;;;;5015634;28;20433;-72
2022/10/10 09:30:06;;;;;;;0.50;0.40;;;21.30;87.40;;;;;;5015678;28;20410;-73
2022/10/10 09:32:36;;;;;;;0.40;0.40;;;21.60;85.80;;;;;;5015571;28;20450;-74
2022/10/10 09:35:13;;;;;;;0.50;0.50;;;21.90;85.10;;;;;;5015962;28;20424;-71
2022/10/10 09:37:40;;;;;;;0.50;0.40;;;22.20;83.00;;;;;;5015658;28;20429;-73
2022/10/10 09:40:11;;;;;;;0.90;0.70;;;22.80;82.40;;;;;;5015523;28;20494;-72
2022/10/10 09:42:38;;;;;;;0.40;0.40;;;23.10;80.60;;;;;;5016068;28;20459;-71
2022/10/10 09:45:22;;;;;;;0.30;0.30;;;23.70;81.40;;;;;;5015666;28;20755;-74
2022/10/10 09:47:51;;;;;;;0.30;0.30;;;24.70;77.30;;;;;;5015394;28;20838;-72
2022/10/10 09:50:16;;;;;;;0.63;0.50;;;25.30;73.70;;;;;;5015267;28;20490;-74
2022/10/10 09:52:43;;;;;;;0.40;0.40;;;25.20;74.60;;;;;;5015834;28;20547;-74
2022/10/10 09:55:35;;;;;;;0.47;0.40;;;24.90;74.90;;;;;;5015351;28;20171;-73
2022/10/10 09:58:26;;;;;;;0.40;0.40;;;23.90;75.20;;;;;;5011219;28;20819;-71
2022/10/10 10:00:55;;;;;;;0.40;0.40;;;23.70;77.10;;;;;;5015123;28;20413;-72
2022/10/10 10:03:22;;;;;;;0.50;0.50;;;23.30;77.70;;;;;;5015002;28;20368;-73
2022/10/10 10:05:58;;;;;;;0.40;0.40;;;23.70;76.50;;;;;;5013304;28;20460;-70
2022/10/10 10:08:31;;;;;;;0.67;0.63;;;24.80;73.80;;;;;;5015431;28;20385;-71
2022/10/10 10:10:57;;;;;;;0.90;0.90;;;25.50;71.10;;;;;;5015190;28;21112;-73
2022/10/10 10:13:36;;;;;;;0.40;0.40;;;25.40;70.00;;;;;;5013863;28;20429;-72
2022/10/10 10:16:13;;;;;;;0.40;0.40;;;25.10;70.90;;;;;;5014683;28;20514;-72
2022/10/10 10:18:41;;;;;;;0.60;0.60;;;24.60;71.40;;;;;;5015241;28;20433;-71
2022/10/10 10:21:09;;;;;;;0.40;0.40;;;24.40;73.00;;;;;;5012746;28;20434;-70
2022/10/10 10:23:49;;;;;;;0.40;0.40;;;24.70;73.20;;;;;;5015239;28;20415;-71
2022/10/10 10:26:28;;;;;;;1.53;0.60;;;25.00;71.70;;;;;;5014811;28;20411;-72
2022/10/10 10:28:56;;;;;;;0.53;0.53;;;25.20;72.10;;;;;;5015099;28;20407;-71
2022/10/10 10:31:37;;;;;;;1.80;0.50;;;25.60;71.50;;;;;;5015025;28;20433;-73
2022/10/10 10:34:30;;;;;;;0.60;0.57;;;26.00;70.70;;;;;;5015154;28;20489;-73
2022/10/10 10:37:10;;;;;;;0.40;0.40;;;26.10;68.60;;;;;;5014765;28;20426;-74
2022/10/10 10:39:50;;;;;;;0.47;0.47;;;25.30;69.90;;;;;;5014345;28;20929;-72
2022/10/10 10:42:15;;;;;;;0.67;0.67;;;25.10;70.10;;;;;;5015051;28;20464;-70
2022/10/10 10:44:48;;;;;;;0.70;0.70;;;25.00;71.80;;;;;;5014570;28;20442;-75
2022/10/10 10:47:41;;;;;;;0.40;0.40;;;24.00;72.50;;;;;;5014360;28;20210;-71
2022/10/10 10:50:19;;;;;;;0.40;0.40;;;23.50;74.20;;;;;;5014255;28;20391;-73
2022/10/10 10:52:47;;;;;;;0.30;0.30;;;23.50;78.20;;;;;;5013022;28;20453;-75
2022/10/10 10:55:22;;;;;;;0.30;0.30;;;23.50;77.50;;;;;;5012630;28;20436;-73
2022/10/10 10:58:18;;;;;;;0.50;0.50;;;23.50;77.40;;;;;;5014301;28;20436;-74
2022/10/10 11:01:05;;;;;;;0.67;0.60;;;23.20;78.30;;;;;;4978473;28;20416;-72
2022/10/10 11:03:37;;;;;;;0.93;0.77;;;23.20;80.40;;;;;;5012244;28;20428;-71
2022/10/10 11:06:06;;;;;;;0.70;0.70;;;23.20;76.90;;;;;;5013824;28;20440;-75
2022/10/10 11:09:01;;;;;;;0.50;0.50;;;23.20;77.90;;;;;;5011682;28;20409;-74
2022/10/10 11:11:51;;;;;;;0.60;0.57;;;22.90;77.70;;;;;;5013134;28;20973;-71
2022/10/10 11:14:51;;;;;;;0.63;0.63;;;22.60;79.90;;;;;;5014173;28;20451;-71
2022/10/10 11:17:20;;;;;;;2.50;0.80;;;22.50;81.10;;;;;;5013787;28;20516;-73
2022/10/10 11:20:17;;;;;;;0.93;0.70;;;22.30;81.30;;;;;;5013595;28;20798;-73
2022/10/10 11:23:06;;;;;;;0.40;0.40;;;22.20;81.80;;;;;;5011711;28;20428;-71
2022/10/10 11:25:40;;;;;;;0.40;0.40;;;22.30;83.40;;;;;;5013591;28;20441;-74
2022/10/10 11:28:25;;;;;;;0.40;0.40;;;22.30;81.20;;;;;;5013152;28;20463;-72
2022/10/10 11:30:57;;;;;;;0.40;0.40;;;22.30;80.70;;;;;;5012033;28;20474;-71
2022/10/10 11:33:25;;;;;;;1.33;0.60;;;22.00;79.70;;;;;;5013807;28;20408;-71
2022/10/10 11:35:50;;;;;;;2.60;2.50;;;21.60;80.00;;;;;;5014647;28;20523;-73
2022/10/10 11:38:25;;;;;;;0.70;0.50;;;21.40;82.90;;;;;;5015876;28;20490;-73
2022/10/10 11:41:12;;;;;;;0.30;0.30;;;21.20;82.00;;;;;;5017842;28;20625;-73
2022/10/10 11:44:07;;;;;;;0.37;0.37;;;20.80;85.90;;;;;;5016757;28;20509;-72
2022/10/10 11:46:52;;;;;;;0.80;0.40;;;20.30;90.00;;;;;;5002795;28;20857;-70
2022/10/10 11:49:37;;;;;;;0.40;0.37;;;20.40;85.50;;;;;;5017899;28;20761;-71
2022/10/10 11:52:13;;;;;;;0.40;0.40;;;20.50;84.10;;;;;;5016494;28;20836;-70
2022/10/10 11:54:52;;;;;;;0.50;0.50;;;20.60;81.30;;;;;;5017842;28;20413;-72
2022/10/10 11:57:32;;;;;;;0.30;0.30;;;20.80;81.00;;;;;;5017901;28;20430;-73
2022/10/10 12:00:11;;;;;;;0.67;0.67;;;20.90;88.70;;;;;;5017277;28;20409;-73
2022/10/10 12:02:39;;;;;;;0.60;0.60;;;20.70;83.60;;;;;;5017295;28;20461;-72
2022/10/10 12:05:16;;;;;;;0.57;0.57;;;20.60;88.30;;;;;;5015487;28;20422;-69
2022/10/10 12:07:55;;;;;;;1.83;0.90;;;20.60;86.30;;;;;;5017914;28;20440;-70
2022/10/10 12:10:25;;;;;;;0.40;0.40;;;20.70;83.40;;;;;;5015781;28;20442;-70
2022/10/10 12:12:56;;;;;;;0.40;0.40;;;20.60;82.00;;;;;;5017026;28;20461;-71
2022/10/10 12:15:36;;;;;;;0.40;0.40;;;20.70;81.70;;;;;;5017494;28;20410;-71
2022/10/10 12:18:03;;;;;;;0.60;0.60;;;20.70;81.80;;;;;;5017732;28;20457;-72
2022/10/10 12:20:35;;;;;;;0.40;0.40;;;20.80;80.80;;;;;;5016917;28;20778;-71
2022/10/10 12:23:20;;;;;;;0.40;0.40;;;20.90;78.60;;;;;;5016964;28;20471;-70
2022/10/10 12:25:46;;;;;;;0.60;0.60;;;20.80;87.60;;;;;;5017357;28;20746;-71
2022/10/10 12:28:12;;;;;;;0.50;0.50;;;20.90;81.40;;;;;;5017222;28;20417;-70
2022/10/10 12:31:06;;;;;;;0.40;0.40;;;20.70;80.40;;;;;;5016642;28;20414;-70
2022/10/10 12:33:32;;;;;;;0.50;0.50;;;20.60;84.50;;;;;;5015576;28;20189;-72
2022/10/10 12:36:19;;;;;;;0.30;0.30;;;20.40;78.40;;;;;;5016079;28;20421;-69
2022/10/10 12:39:06;;;;;;;0.40;0.40;;;20.40;82.90;;;;;;5016136;28;20617;-70
2022/10/10 12:41:41;;;;;;;1.17;0.73;;;20.50;79.90;;;;;;5016908;28;20409;-69
2022/10/10 12:44:43;;;;;;;0.63;0.63;;;20.50;79.60;;;;;;5016984;28;20405;-70
2022/10/10 12:47:14;;;;;;;0.43;0.43;;;20.70;78.10;;;;;;5015977;28;20495;-71
2022/10/10 12:49:57;;;;;;;0.40;0.40;;;20.70;79.20;;;;;;5015180;28;20410;-70
2022/10/10 12:52:36;;;;;;;0.40;0.40;;;20.50;81.20;;;;;;5016583;28;20450;-68
2022/10/10 12:55:16;;;;;;;0.87;0.60;;;20.40;81.00;;;;;;5016826;28;20401;-70
2022/10/10 12:57:44;;;;;;;1.20;1.13;;;20.20;80.20;;;;;;5017005;28;20430;-70
2022/10/10 13:00:19;;;;;;;2.30;0.90;;;20.10;76.10;;;;;;5016379;28;20441;-70
2022/10/10 13:02:50;;;;;;;0.60;0.60;;;20.00;78.20;;;;;;5016552;28;20423;-72
2022/10/10 13:05:20;;;;;;;0.40;0.40;;;19.70;86.40;;;;;;5016529;28;20775;-69
2022/10/10 13:07:48;;;;;;;1.27;0.80;;;19.40;86.30;;;;;;5015350;28;20992;-72